<?xml version="1.0" encoding="UTF-8" standalone="no" ?>
<gpx xmlns="http://www.topografix.com/GPX/1/1" xmlns:xsi="http://www.w3.org/2001/XMLSchema-instance" xsi:schemaLocation="http://www.topografix.com/GPX/1/1 http://www.topografix.com/GPX/1/1/gpx.xsd" version="1.1" creator="VisuGPX - https://www.visugpx.com">
  <metadata>
    <name>Velo</name>
    <desc><![CDATA[idor:10246719_102515280_10794639_12973163_1418743_13428926_12998252_13558460_14716825_14357364_14251590]]></desc>
  </metadata>
  <trk>
    <name><![CDATA[TreillièresGranchamp_BoucleVelo28km-10794639]]></name>
    <extensions>
      <line xmlns="http://www.topografix.com/GPX/gpx_style/0/2">
        <color>FF0000</color>
        <width>4</width>
      </line>
    </extensions>
    <trkseg>
      <trkpt lat="47.26944" lon="-1.54452">
        <ele>27</ele>
        <time>2023-11-15T07:10:14Z</time>
      </trkpt>
      <trkpt lat="47.2688" lon="-1.54589">
        <ele>31</ele>
        <time>2023-11-15T07:10:34Z</time>
      </trkpt>
      <trkpt lat="47.26493" lon="-1.54675">
        <ele>20</ele>
        <time>2023-11-15T07:11:44Z</time>
      </trkpt>
      <trkpt lat="47.26199" lon="-1.55022">
        <ele>12</ele>
        <time>2023-11-15T07:12:51Z</time>
      </trkpt>
      <trkpt lat="47.26003" lon="-1.55585">
        <ele>8</ele>
        <time>2023-11-15T07:14:07Z</time>
      </trkpt>
      <trkpt lat="47.26081" lon="-1.56278">
        <ele>25</ele>
        <time>2023-11-15T07:15:32Z</time>
      </trkpt>
      <trkpt lat="47.26361" lon="-1.56956">
        <ele>28</ele>
        <time>2023-11-15T07:17:08Z</time>
      </trkpt>
      <trkpt lat="47.26439" lon="-1.57404">
        <ele>34</ele>
        <time>2023-11-15T07:18:04Z</time>
      </trkpt>
      <trkpt lat="47.26312" lon="-1.58003">
        <ele>43</ele>
        <time>2023-11-15T07:19:19Z</time>
      </trkpt>
      <trkpt lat="47.26826" lon="-1.58212">
        <ele>49</ele>
        <time>2023-11-15T07:20:54Z</time>
      </trkpt>
      <trkpt lat="47.26708" lon="-1.58595">
        <ele>51</ele>
        <time>2023-11-15T07:21:45Z</time>
      </trkpt>
      <trkpt lat="47.2781" lon="-1.59684">
        <ele>50</ele>
        <time>2023-11-15T07:25:41Z</time>
      </trkpt>
      <trkpt lat="47.28065" lon="-1.59143">
        <ele>53</ele>
        <time>2023-11-15T07:27:01Z</time>
      </trkpt>
      <trkpt lat="47.28315" lon="-1.59425">
        <ele>54</ele>
        <time>2023-11-15T07:27:57Z</time>
      </trkpt>
      <trkpt lat="47.28785" lon="-1.59605">
        <ele>53</ele>
        <time>2023-11-15T07:29:23Z</time>
      </trkpt>
      <trkpt lat="47.29558" lon="-1.59699">
        <ele>57</ele>
        <time>2023-11-15T07:31:41Z</time>
      </trkpt>
      <trkpt lat="47.3015" lon="-1.60356">
        <ele>62</ele>
        <time>2023-11-15T07:33:53Z</time>
      </trkpt>
      <trkpt lat="47.30517" lon="-1.60348">
        <ele>60</ele>
        <time>2023-11-15T07:34:58Z</time>
      </trkpt>
      <trkpt lat="47.31349" lon="-1.59944">
        <ele>22</ele>
        <time>2023-11-15T07:37:34Z</time>
      </trkpt>
      <trkpt lat="47.31496" lon="-1.60125">
        <ele>26</ele>
        <time>2023-11-15T07:38:08Z</time>
      </trkpt>
      <trkpt lat="47.31555" lon="-1.59829">
        <ele>31</ele>
        <time>2023-11-15T07:38:45Z</time>
      </trkpt>
      <trkpt lat="47.31658" lon="-1.60038">
        <ele>40</ele>
        <time>2023-11-15T07:39:17Z</time>
      </trkpt>
      <trkpt lat="47.31932" lon="-1.59966">
        <ele>45</ele>
        <time>2023-11-15T07:40:06Z</time>
      </trkpt>
      <trkpt lat="47.32308" lon="-1.59959">
        <ele>48</ele>
        <time>2023-11-15T07:41:13Z</time>
      </trkpt>
      <trkpt lat="47.32406" lon="-1.60081">
        <ele>50</ele>
        <time>2023-11-15T07:41:36Z</time>
      </trkpt>
      <trkpt lat="47.32529" lon="-1.60154">
        <ele>51</ele>
        <time>2023-11-15T07:41:59Z</time>
      </trkpt>
      <trkpt lat="47.327" lon="-1.60002">
        <ele>54</ele>
        <time>2023-11-15T07:42:35Z</time>
      </trkpt>
      <trkpt lat="47.32744" lon="-1.6019">
        <ele>55</ele>
        <time>2023-11-15T07:42:59Z</time>
      </trkpt>
      <trkpt lat="47.33365" lon="-1.6011">
        <ele>50</ele>
        <time>2023-11-15T07:44:50Z</time>
      </trkpt>
      <trkpt lat="47.33668" lon="-1.60442">
        <ele>40</ele>
        <time>2023-11-15T07:45:57Z</time>
      </trkpt>
      <trkpt lat="47.34588" lon="-1.60839">
        <ele>32</ele>
        <time>2023-11-15T07:48:48Z</time>
      </trkpt>
      <trkpt lat="47.34818" lon="-1.60644">
        <ele>39</ele>
        <time>2023-11-15T07:49:35Z</time>
      </trkpt>
      <trkpt lat="47.35194" lon="-1.60579">
        <ele>42</ele>
        <time>2023-11-15T07:50:42Z</time>
      </trkpt>
      <trkpt lat="47.3515" lon="-1.60197">
        <ele>41</ele>
        <time>2023-11-15T07:51:29Z</time>
      </trkpt>
      <trkpt lat="47.35419" lon="-1.60291">
        <ele>43</ele>
        <time>2023-11-15T07:52:18Z</time>
      </trkpt>
      <trkpt lat="47.35473" lon="-1.59822">
        <ele>42</ele>
        <time>2023-11-15T07:53:15Z</time>
      </trkpt>
      <trkpt lat="47.35659" lon="-1.58652">
        <ele>33</ele>
        <time>2023-11-15T07:55:40Z</time>
      </trkpt>
      <trkpt lat="47.35424" lon="-1.5853">
        <ele>18</ele>
        <time>2023-11-15T07:56:24Z</time>
      </trkpt>
      <trkpt lat="47.34681" lon="-1.58941">
        <ele>43</ele>
        <time>2023-11-15T07:58:46Z</time>
      </trkpt>
      <trkpt lat="47.33844" lon="-1.57808">
        <ele>39</ele>
        <time>2023-11-15T08:02:08Z</time>
      </trkpt>
      <trkpt lat="47.33712" lon="-1.57433">
        <ele>42</ele>
        <time>2023-11-15T08:02:59Z</time>
      </trkpt>
      <trkpt lat="47.33341" lon="-1.57043">
        <ele>33</ele>
        <time>2023-11-15T08:04:20Z</time>
      </trkpt>
      <trkpt lat="47.32352" lon="-1.55332">
        <ele>29</ele>
        <time>2023-11-15T08:08:51Z</time>
      </trkpt>
      <trkpt lat="47.31814" lon="-1.54755">
        <ele>24</ele>
        <time>2023-11-15T08:10:49Z</time>
      </trkpt>
      <trkpt lat="47.31599" lon="-1.54307">
        <ele>8</ele>
        <time>2023-11-15T08:11:56Z</time>
      </trkpt>
      <trkpt lat="47.30816" lon="-1.54293">
        <ele>19</ele>
        <time>2023-11-15T08:14:15Z</time>
      </trkpt>
      <trkpt lat="47.2995" lon="-1.54805">
        <ele>26</ele>
        <time>2023-11-15T08:17:01Z</time>
      </trkpt>
      <trkpt lat="47.29034" lon="-1.54928">
        <ele>26</ele>
        <time>2023-11-15T08:19:44Z</time>
      </trkpt>
      <trkpt lat="47.28545" lon="-1.54964">
        <ele>26</ele>
        <time>2023-11-15T08:21:12Z</time>
      </trkpt>
      <trkpt lat="47.27423" lon="-1.54726">
        <ele>34</ele>
        <time>2023-11-15T08:24:33Z</time>
      </trkpt>
      <trkpt lat="47.26899" lon="-1.54592">
        <ele>31</ele>
        <time>2023-11-15T08:26:08Z</time>
      </trkpt>
      <trkpt lat="47.26921" lon="-1.54449">
        <ele>27</ele>
        <time>2023-11-15T08:26:26Z</time>
      </trkpt>
    </trkseg>
  </trk>
</gpx>